Historique des mesures à Cassis (13260), France
Quotidien Résumé Fevrier 28, 2018 Unités:  US    Métrique   Métrique/US
« Précédent (Jour)
Suivant (Jour) »
Quotidien Hebdomadaire Mensuel Annuel Période au choix
  Maximum: Minimum: Moyenne:
Température: 32 °F 35.8 °F 39.7 °F
Point de rosée: 32 °F 25.2 °F 29.3 °F
Humidité: Humidity % 61 % 62 %
Vitesse du vent: WindSpeedKMH mph 0.0 mph 7.3 mph
Rafales: WindSpeedGustKMH mph - -
Vent:- - ESE
Pression: 0 in 29.5 in -
Précipitations: 0 in    
Historical Graphs
 
 
Mesures pour : Fevrier 28, 2018
Heure Temperature Point de rosée Pression Vent Vitesse du vent Rafales Humidité Pluie (par heure) Conditions
32 °F 32 °F 0 in Calm     Humidity % 0 in SoftwareType W/m2
00:12 36.3 °F 25.7 °F 29.7 in WNW 1.4 mph 3.2 mph 65 % 0 in open2300-1.11 W/m2
01:12 35.8 °F 25.2 °F 29.7 in North 2.1 mph 2.1 mph 65 % 0 in open2300-1.11 W/m2
02:12 36 °F 25.7 °F 29.7 in North 3.2 mph 3.2 mph 66 % 0 in open2300-1.11 W/m2
03:12 36.9 °F 26.2 °F 29.7 in Calm   2.6 mph 65 % 0 in open2300-1.11 W/m2
04:12 37.8 °F 27.3 °F 29.7 in North 2.1 mph 2.1 mph 66 % 0 in open2300-1.11 W/m2
05:12 38.7 °F 27.5 °F 29.7 in ENE 11.1 mph 11.1 mph 64 % 0 in open2300-1.11 W/m2
06:12 39 °F 27.9 °F 29.7 in Calm   6.4 mph 64 % 0 in open2300-1.11 W/m2
07:12 39 °F 27.3 °F 29.7 in ESE 6.4 mph 6.4 mph 63 % 0 in open2300-1.11 W/m2
08:12 39.4 °F 27.7 °F 29.7 in ESE 6.1 mph 6.1 mph 63 % 0 in open2300-1.11 W/m2
09:12 40.5 °F 28.4 °F 29.7 in NW 6.4 mph 6.4 mph 62 % 0 in open2300-1.11 W/m2
10:12 41.7 °F 29.1 °F 29.7 in East 3.5 mph 7.2 mph 61 % 0 in open2300-1.11 W/m2
11:12 41.2 °F 29.5 °F 29.7 in ESE 6.4 mph 7.6 mph 63 % 0 in open2300-1.11 W/m2
12:12 41.9 °F 30.6 °F 29.7 in SSE 15.8 mph 15.8 mph 64 % 0 in open2300-1.11 W/m2
13:12 42.4 °F 31.8 °F 29.6 in East 7.2 mph 10.8 mph 66 % 0 in open2300-1.11 W/m2
14:12 42.6 °F 32 °F 29.6 in SE 10.1 mph 19.1 mph 66 % 0 in open2300-1.11 W/m2
15:12 42.6 °F 32 °F 29.6 in ESE 13.7 mph 18.7 mph 66 % 0 in open2300-1.11 W/m2
16:12 42.4 °F 31.5 °F 29.6 in NNE 12.2 mph 12.2 mph 65 % 0 in open2300-1.11 W/m2
17:12 41.5 °F 30.9 °F 29.6 in SE 8.7 mph 9.3 mph 66 % 0 in open2300-1.11 W/m2
18:12 40.8 °F 30.4 °F 29.6 in ESE 23.3 mph 23.3 mph 66 % 0 in open2300-1.11 W/m2
19:12 40.8 °F 30.4 °F 29.6 in East 9.0 mph 13.0 mph 66 % 0 in open2300-1.11 W/m2
20:12 41 °F 30 °F 29.6 in ESE 4.0 mph 21.2 mph 65 % 0 in open2300-1.11 W/m2
21:12 40.8 °F 30.7 °F 29.5 in ESE 7.9 mph 13.0 mph 67 % 0 in open2300-1.11 W/m2
22:12 41.2 °F 30.9 °F 29.5 in SE 4.7 mph 29.4 mph 67 % 0 in open2300-1.11 W/m2
23:12 42.1 °F 31.5 °F 29.5 in ESE 16.9 mph 23.3 mph 66 % 0 in open2300-1.11 W/m2
Observations météo à CASSIS
WU-History script by Weather Underground - 1 mb